Time;durP1;ratioP1;P1;durP2;ratioP2;P2;SDS_P1;SDS_P2;PMS_P1;PMS_P2;Temp;Humidity;BMP_temperature;BMP_pressure;BME280_temperature;BME280_humidity;BME280_pressure;Samples;Min_cycle;Max_cycle;Signal;HPM_P1;HPM_P2
2023/06/17 00:00:35;;;;;;;3.22;1.80;;;;;;;18.88;100.00;96838.56;5064858;28;20024;-82
2023/06/17 00:03:01;;;;;;;6.28;2.17;;;;;;;18.86;100.00;96835.16;5043876;28;20040;-84
2023/06/17 00:05:26;;;;;;;1.73;1.55;;;;;;;18.88;100.00;96840.44;5045648;28;20038;-84
2023/06/17 00:07:52;;;;;;;3.60;1.83;;;;;;;18.90;100.00;96833.84;5051963;28;20103;-84
2023/06/17 00:10:18;;;;;;;3.85;1.65;;;;;;;18.92;100.00;96831.78;5053947;28;20406;-85
2023/06/17 00:12:44;;;;;;;3.10;1.25;;;;;;;18.92;100.00;96837.22;5050332;28;20033;-83
2023/06/17 00:15:10;;;;;;;4.13;1.50;;;;;;;18.87;100.00;96820.59;5045590;28;20115;-85
2023/06/17 00:17:36;;;;;;;4.85;1.80;;;;;;;18.87;100.00;96834.16;5036707;28;20100;-85
2023/06/17 00:20:23;;;;;;;2.30;1.40;;;;;;;18.79;100.00;96828.72;5036955;28;20023;-87
2023/06/17 00:22:48;;;;;;;4.47;1.38;;;;;;;18.83;100.00;96838.19;5045154;28;20093;-85
2023/06/17 00:25:14;;;;;;;1.30;1.20;;;;;;;18.79;100.00;96826.00;5040447;28;20040;-85
2023/06/17 00:27:39;;;;;;;6.07;1.63;;;;;;;18.78;100.00;96829.72;5048373;28;20039;-85
2023/06/17 00:30:06;;;;;;;2.35;1.52;;;;;;;18.86;100.00;96831.59;5048830;28;20066;-85
2023/06/17 00:32:32;;;;;;;4.65;1.30;;;;;;;18.86;100.00;96837.88;5036102;28;20403;-85
2023/06/17 00:34:57;;;;;;;2.30;1.50;;;;;;;18.79;100.00;96836.84;5068040;28;20024;-85
2023/06/17 00:37:23;;;;;;;1.90;1.40;;;;;;;18.69;100.00;96838.81;5062342;28;20036;-83
2023/06/17 00:39:49;;;;;;;2.55;1.58;;;;;;;18.71;100.00;96844.06;5070771;28;20036;-83
2023/06/17 00:42:16;;;;;;;4.00;1.40;;;;;;;18.62;100.00;96834.22;5042164;28;20035;-83
2023/06/17 00:44:41;;;;;;;1.95;1.25;;;;;;;18.53;100.00;96837.88;5071709;28;20032;-85
2023/06/17 00:47:09;;;;;;;4.40;1.30;;;;;;;18.50;100.00;96836.34;5046156;28;20078;-85
2023/06/17 00:49:40;;;;;;;3.03;1.48;;;;;;;18.53;100.00;96841.44;5053115;28;20407;-84
2023/06/17 00:52:07;;;;;;;3.83;1.30;;;;;;;18.28;100.00;96809.78;5053034;28;20032;-83
2023/06/17 00:54:36;;;;;;;1.63;1.20;;;;;;;18.49;100.00;96834.66;5045249;28;20174;-83
2023/06/17 00:57:02;;;;;;;3.63;1.23;;;;;;;18.50;100.00;96830.09;5044955;28;20089;-82
2023/06/17 00:59:32;;;;;;;2.50;1.30;;;;;;;18.50;100.00;96825.53;5069889;28;20111;-86
2023/06/17 01:01:58;;;;;;;8.98;1.60;;;;;;;18.48;100.00;96824.81;5053383;28;20182;-84
2023/06/17 01:04:24;;;;;;;5.38;1.75;;;;;;;18.50;100.00;96830.94;5055784;28;20048;-84
2023/06/17 01:07:03;;;;;;;5.97;1.70;;;;;;;18.54;100.00;96835.03;5035283;28;20079;-86
2023/06/17 01:09:30;;;;;;;13.40;1.98;;;;;;;18.46;100.00;96829.53;5064762;28;20052;-87
2023/06/17 01:11:59;;;;;;;12.43;2.00;;;;;;;18.52;100.00;96841.63;5035998;28;20029;-86
2023/06/17 01:14:25;;;;;;;2.75;1.55;;;;;;;18.47;100.00;96831.22;5053780;28;20022;-86
2023/06/17 01:16:54;;;;;;;5.22;1.90;;;;;;;18.49;100.00;96840.06;5051869;28;20031;-88
2023/06/17 01:19:21;;;;;;;7.60;1.75;;;;;;;18.47;100.00;96831.22;5034171;28;20021;-87
2023/06/17 01:21:51;;;;;;;7.45;2.28;;;;;;;18.37;100.00;96827.78;5050158;28;20389;-84
2023/06/17 01:24:30;;;;;;;5.10;1.80;;;;;;;18.40;100.00;96830.16;5040315;28;20469;-83
2023/06/17 01:27:00;;;;;;;8.65;1.58;;;;;;;18.29;100.00;96822.31;5059776;28;20017;-82
2023/06/17 01:29:29;;;;;;;5.20;1.60;;;;;;;18.29;100.00;96828.59;5038677;28;20447;-82
2023/06/17 01:31:57;;;;;;;5.00;1.90;;;;;;;18.25;100.00;96820.94;5033011;28;20543;-81
2023/06/17 01:34:32;;;;;;;11.88;2.13;;;;;;;18.20;100.00;96826.00;5033702;28;20378;-82
2023/06/17 01:36:58;;;;;;;12.13;1.90;;;;;;;18.12;100.00;96831.38;5036535;28;20029;-82
2023/06/17 01:39:25;;;;;;;5.90;1.98;;;;;;;18.18;100.00;96828.03;5061308;28;20033;-85
2023/06/17 01:41:53;;;;;;;3.78;1.75;;;;;;;18.22;100.00;96837.50;5062410;28;20039;-86
2023/06/17 01:44:20;;;;;;;6.18;2.10;;;;;;;18.22;100.00;96842.91;5051965;28;20036;-83
2023/06/17 01:46:46;;;;;;;4.90;1.92;;;;;;;18.23;100.00;96848.19;5036232;28;20063;-83
2023/06/17 01:49:11;;;;;;;3.40;1.80;;;;;;;18.22;100.00;96842.91;5039668;28;20554;-85
2023/06/17 01:51:37;;;;;;;2.17;1.63;;;;;;;18.26;100.00;96841.59;5048236;28;20020;-85
2023/06/17 01:54:03;;;;;;;3.60;1.60;;;;;;;18.19;100.00;96838.69;5062632;28;20496;-84
2023/06/17 01:56:28;;;;;;;4.28;1.50;;;;;;;18.19;100.00;96841.38;5053155;28;20031;-85
2023/06/17 01:58:54;;;;;;;2.25;1.40;;;;;;;18.15;100.00;96848.13;5052933;28;20104;-83
2023/06/17 02:01:19;;;;;;;6.70;1.48;;;;;;;18.07;100.00;96833.69;5048350;28;20510;-84
2023/06/17 02:03:45;;;;;;;2.92;1.50;;;;;;;18.10;100.00;96838.78;5039950;28;20124;-84
2023/06/17 02:06:10;;;;;;;7.07;1.40;;;;;;;18.09;100.00;96843.34;5043875;28;20025;-84
2023/06/17 02:08:37;;;;;;;1.27;1.17;;;;;;;18.13;100.00;96849.28;5037449;28;20021;-84
2023/06/17 02:11:02;;;;;;;1.85;1.45;;;;;;;18.10;100.00;96844.19;5052484;28;20032;-85
2023/06/17 02:13:28;;;;;;;1.65;1.35;;;;;;;18.07;100.00;96834.53;5035781;28;20024;-85
2023/06/17 02:15:53;;;;;;;5.85;1.80;;;;;;;18.13;100.00;96831.19;5036068;28;20095;-84
2023/06/17 02:18:19;;;;;;;3.65;1.65;;;;;;;18.14;100.00;96841.03;5055504;28;20074;-84
2023/06/17 02:20:45;;;;;;;1.98;1.77;;;;;;;18.04;100.00;96828.59;5064690;28;20063;-85
2023/06/17 02:23:11;;;;;;;5.35;1.95;;;;;;;18.07;100.00;96831.84;5062915;28;20059;-84
2023/06/17 02:25:39;;;;;;;2.97;1.65;;;;;;;18.06;100.00;96843.66;5048500;28;20024;-84
2023/06/17 02:28:05;;;;;;;2.78;2.00;;;;;;;18.09;100.00;96840.63;5072317;28;20438;-84
2023/06/17 02:30:31;;;;;;;7.50;2.28;;;;;;;18.11;100.00;96844.06;5055669;28;20543;-83
2023/06/17 02:32:57;;;;;;;8.27;2.03;;;;;;;18.11;100.00;96837.78;5040346;28;20120;-83
2023/06/17 02:35:22;;;;;;;5.30;2.47;;;;;;;18.13;100.00;96842.03;5035329;28;20032;-84
2023/06/17 02:37:48;;;;;;;4.78;2.03;;;;;;;18.06;100.00;96838.25;5035852;28;20470;-84
2023/06/17 02:40:13;;;;;;;2.65;1.70;;;;;;;18.03;100.00;96832.28;5036459;28;20063;-85
2023/06/17 02:42:39;;;;;;;5.90;1.90;;;;;;;18.06;100.00;96840.09;5072304;28;20020;-84
2023/06/17 02:45:07;;;;;;;2.70;1.50;;;;;;;18.14;100.00;96841.03;5055310;28;20027;-84
2023/06/17 02:47:32;;;;;;;4.13;1.30;;;;;;;18.04;100.00;96834.00;5035666;28;20467;-84
2023/06/17 02:49:58;;;;;;;2.92;1.55;;;;;;;18.10;100.00;96844.19;5067411;28;20066;-84
2023/06/17 02:52:24;;;;;;;3.15;1.60;;;;;;;18.04;100.00;96842.13;5071927;28;20081;-84
2023/06/17 02:54:50;;;;;;;2.97;1.10;;;;;;;18.05;100.00;96846.53;5055177;28;20169;-83
2023/06/17 02:57:16;;;;;;;2.75;1.02;;;;;;;18.02;100.00;96853.13;5071307;28;20032;-83
2023/06/17 02:59:42;;;;;;;1.35;0.95;;;;;;;17.93;100.00;96847.81;5060341;28;20025;-84
2023/06/17 03:02:08;;;;;;;3.50;0.85;;;;;;;17.90;100.00;96850.81;5043020;28;20494;-83
2023/06/17 03:04:36;;;;;;;3.45;1.33;;;;;;;17.94;100.00;96852.19;5046847;28;20411;-83
2023/06/17 03:07:05;;;;;;;3.72;1.38;;;;;;;17.92;100.00;96849.66;5055367;28;20060;-83
2023/06/17 03:09:31;;;;;;;3.72;1.30;;;;;;;17.96;100.00;96861.88;5054783;28;20037;-84
2023/06/17 03:12:02;;;;;;;6.40;1.75;;;;;;;17.89;100.00;96858.09;5071473;28;20474;-84
2023/06/17 03:14:29;;;;;;;6.75;2.42;;;;;;;17.86;100.00;96859.25;5053169;28;20071;-84
2023/06/17 03:16:57;;;;;;;6.72;2.33;;;;;;;17.93;100.00;96862.19;5048701;28;20520;-82
2023/06/17 03:19:23;;;;;;;7.20;2.13;;;;;;;17.94;100.00;96865.72;5054570;28;20090;-83
2023/06/17 03:21:49;;;;;;;26.23;7.10;;;;;;;17.94;100.00;96860.31;5041769;28;20021;-83
2023/06/17 03:24:15;;;;;;;60.78;20.40;;;;;;;17.96;100.00;96870.00;5051249;28;20016;-83
2023/06/17 03:26:41;;;;;;;57.88;20.77;;;;;;;17.95;100.00;96868.28;5043173;28;20545;-85
2023/06/17 03:29:06;;;;;;;30.27;11.88;;;;;;;17.89;100.00;96863.50;5059618;28;20100;-83
2023/06/17 03:31:32;;;;;;;20.50;9.57;;;;;;;17.98;100.00;96876.09;5038885;28;20060;-84
2023/06/17 03:33:57;;;;;;;19.45;6.97;;;;;;;17.91;100.00;96866.03;5034179;28;20105;-84
2023/06/17 03:36:28;;;;;;;11.95;4.40;;;;;;;17.93;100.00;96861.34;5039054;28;20111;-84
2023/06/17 03:38:54;;;;;;;5.75;3.10;;;;;;;17.92;100.00;96854.22;5066281;28;20036;-84
2023/06/17 03:41:21;;;;;;;5.30;2.40;;;;;;;17.93;100.00;96861.34;5038222;28;20404;-85
2023/06/17 03:43:46;;;;;;;4.43;2.90;;;;;;;17.94;100.00;96855.75;5055001;28;20028;-84
2023/06/17 03:46:12;;;;;;;7.03;4.85;;;;;;;17.94;100.00;96855.75;5030615;28;20045;-83
2023/06/17 03:48:39;;;;;;;8.10;4.15;;;;;;;17.90;100.00;96848.13;5030795;28;20116;-84
2023/06/17 03:51:05;;;;;;;2.85;2.10;;;;;;;17.90;100.00;96856.25;5028993;28;20025;-85
2023/06/17 03:53:30;;;;;;;3.30;2.08;;;;;;;17.86;100.00;96861.97;5028589;28;20584;-84
2023/06/17 03:55:56;;;;;;;2.10;1.90;;;;;;;17.82;100.00;96863.28;5028238;28;20017;-84
2023/06/17 03:58:22;;;;;;;4.63;1.70;;;;;;;17.77;100.00;96860.19;5029788;28;20052;-85
2023/06/17 04:00:47;;;;;;;2.88;2.00;;;;;;;17.85;100.00;96862.97;5047790;28;20059;-85
2023/06/17 04:03:14;;;;;;;3.05;1.70;;;;;;;17.91;100.00;96874.16;5028333;28;20060;-85
2023/06/17 04:05:41;;;;;;;5.97;1.80;;;;;;;17.87;100.00;96866.34;5029195;28;20017;-85
2023/06/17 04:08:07;;;;;;;2.88;1.63;;;;;;;17.91;100.00;96871.44;5030980;28;20021;-84
2023/06/17 04:10:33;;;;;;;3.70;2.10;;;;;;;17.92;100.00;96870.44;5030037;28;20063;-84
2023/06/17 04:12:58;;;;;;;2.22;1.60;;;;;;;17.95;100.00;96878.25;5046016;28;20024;-84
2023/06/17 04:15:24;;;;;;;2.10;1.75;;;;;;;17.97;100.00;96873.53;5033009;28;20056;-84
2023/06/17 04:17:49;;;;;;;6.47;1.77;;;;;;;17.99;100.00;96876.94;5034026;28;20112;-84
2023/06/17 04:20:15;;;;;;;6.43;1.42;;;;;;;18.04;100.00;96888.13;5033751;28;20223;-85
2023/06/17 04:22:42;;;;;;;2.30;1.55;;;;;;;18.05;100.00;96876.31;5030875;28;20029;-84
2023/06/17 04:25:09;;;;;;;2.22;1.40;;;;;;;18.04;100.00;96877.31;5030278;28;20032;-85
2023/06/17 04:27:36;;;;;;;2.17;1.60;;;;;;;18.05;100.00;96884.44;5033308;28;20171;-85
2023/06/17 04:30:05;;;;;;;7.07;1.45;;;;;;;18.03;100.00;96878.31;5050760;28;20170;-84
2023/06/17 04:32:34;;;;;;;1.33;1.23;;;;;;;18.07;100.00;96877.00;5029644;28;20041;-84
2023/06/17 04:35:03;;;;;;;2.67;2.15;;;;;;;18.18;100.00;96887.59;5033616;28;20447;-83
2023/06/17 04:37:40;;;;;;;3.88;2.08;;;;;;;18.16;100.00;96887.72;5032712;28;20025;-82
2023/06/17 04:40:22;;;;;;;5.70;1.60;;;;;;;18.17;100.00;96884.03;5026932;28;20020;-83
2023/06/17 04:43:14;;;;;;;2.08;1.70;;;;;;;18.16;100.00;96890.44;5033114;28;20059;-85
2023/06/17 04:48:43;;;;;;;3.72;2.05;;;;;;;17.93;100.00;96866.75;5059162;28;20047;-84
2023/06/17 04:51:12;;;;;;;5.63;1.70;;;;;;;18.10;100.00;96899.19;5033270;28;20415;-85
2023/06/17 04:53:39;;;;;;;4.47;2.40;;;;;;;18.10;100.00;96898.34;5037520;28;20036;-83
2023/06/17 04:56:06;;;;;;;3.55;2.13;;;;;;;18.12;100.00;96899.88;5034754;28;20102;-84
2023/06/17 04:58:32;;;;;;;5.00;2.15;;;;;;;18.14;100.00;96897.88;5037390;28;20047;-85
2023/06/17 05:00:58;;;;;;;3.65;2.28;;;;;;;18.15;100.00;96896.03;5036180;28;20039;-84
2023/06/17 05:03:23;;;;;;;4.88;1.90;;;;;;;18.12;100.00;96890.94;5036248;28;20036;-84
2023/06/17 05:05:50;;;;;;;6.10;2.35;;;;;;;18.06;100.00;96894.22;5036264;28;20135;-83
2023/06/17 05:08:15;;;;;;;5.80;2.83;;;;;;;18.18;100.00;96906.53;5036758;28;20166;-84
2023/06/17 05:10:41;;;;;;;6.78;3.30;;;;;;;18.19;100.00;96903.66;5040773;28;20083;-84
2023/06/17 05:13:06;;;;;;;10.50;4.15;;;;;;;18.18;100.00;96903.84;5056737;28;20059;-85
2023/06/17 05:15:32;;;;;;;31.52;8.27;;;;;;;18.19;100.00;96911.78;5056687;28;20480;-83
2023/06/17 05:17:57;;;;;;;38.25;12.13;;;;;;;18.19;100.00;96914.47;5056784;28;20016;-83
2023/06/17 05:20:23;;;;;;;12.27;5.97;;;;;;;18.29;100.00;96914.38;5056535;28;20024;-83
2023/06/17 05:22:48;;;;;;;54.60;16.85;;;;;;;18.27;100.00;96913.72;5040209;28;20484;-83
2023/06/17 05:25:14;;;;;;;18.13;7.18;;;;;;;18.34;100.00;96914.75;5074247;28;20055;-82
2023/06/17 05:27:39;;;;;;;7.88;4.85;;;;;;;18.33;100.00;96921.19;5056326;28;20103;-82
2023/06/17 05:30:06;;;;;;;16.15;9.52;;;;;;;18.43;100.00;96927.34;5074431;28;20541;-84
2023/06/17 05:32:31;;;;;;;5.32;2.55;;;;;;;18.44;100.00;96931.75;5040061;28;20056;-82
2023/06/17 05:34:57;;;;;;;2.60;2.10;;;;;;;18.46;100.00;96926.19;5056227;28;20154;-81
2023/06/17 05:37:22;;;;;;;5.10;2.75;;;;;;;18.46;100.00;96926.19;5056566;28;20419;-81
2023/06/17 05:39:48;;;;;;;2.60;2.17;;;;;;;18.49;100.00;96926.75;5057237;28;20025;-82
2023/06/17 05:42:13;;;;;;;5.72;2.55;;;;;;;18.49;100.00;96920.47;5074960;28;20035;-83
2023/06/17 05:44:40;;;;;;;4.25;2.90;;;;;;;18.64;100.00;96918.91;5058291;28;20028;-83
2023/06/17 05:47:05;;;;;;;9.82;6.75;;;;;;;18.78;100.00;96919.16;5058406;28;20068;-83
2023/06/17 05:49:31;;;;;;;10.75;5.88;;;;;;;18.80;100.00;96916.25;5057698;28;20125;-83
2023/06/17 05:51:56;;;;;;;4.53;2.80;;;;;;;18.83;100.00;96907.81;5075390;28;20488;-83
2023/06/17 05:54:22;;;;;;;3.25;2.78;;;;;;;18.87;100.00;96907.34;5040528;28;20035;-83
2023/06/17 05:56:47;;;;;;;15.75;9.85;;;;;;;18.84;100.00;96907.66;5075023;28;20385;-83
2023/06/17 05:59:13;;;;;;;2.78;2.13;;;;;;;18.87;100.00;96893.78;5056909;28;20031;-83
2023/06/17 06:01:38;;;;;;;3.78;2.05;;;;;;;18.88;100.00;96895.50;5032941;28;20020;-83
2023/06/17 06:04:04;;;;;;;7.38;4.25;;;;;;;18.94;100.00;96900.25;5049709;28;20040;-84
2023/06/17 06:06:29;;;;;;;14.88;7.70;;;;;;;18.95;100.00;96890.25;5073920;28;20024;-83
2023/06/17 06:08:55;;;;;;;28.45;16.90;;;;;;;19.03;100.00;96892.16;5039677;28;20031;-84
2023/06/17 06:11:20;;;;;;;10.00;4.85;;;;;;;19.08;100.00;96895.22;5073141;28;20029;-83
2023/06/17 06:13:46;;;;;;;29.42;17.90;;;;;;;19.05;100.00;96887.41;5050692;28;20060;-84
2023/06/17 06:16:11;;;;;;;3.42;2.58;;;;;;;19.09;100.00;96896.91;5056589;28;20065;-84
2023/06/17 06:18:37;;;;;;;3.90;3.03;;;;;;;19.03;100.00;96909.28;5056421;28;20021;-84
2023/06/17 06:21:03;;;;;;;3.75;2.80;;;;;;;19.01;100.00;96910.44;5055483;28;20032;-84
2023/06/17 06:23:28;;;;;;;8.02;5.88;;;;;;;18.99;100.00;96917.88;5056067;28;20035;-85
2023/06/17 06:25:54;;;;;;;6.75;4.85;;;;;;;18.95;100.00;96911.94;5039566;28;20535;-84
2023/06/17 06:28:19;;;;;;;4.07;2.88;;;;;;;18.94;100.00;96911.09;5055560;28;20035;-83
2023/06/17 06:30:45;;;;;;;3.42;3.03;;;;;;;18.98;100.00;96919.72;5055708;28;20154;-83
2023/06/17 06:33:10;;;;;;;7.80;5.10;;;;;;;19.00;100.00;96915.03;5055381;28;20349;-83
2023/06/17 06:35:36;;;;;;;7.20;4.63;;;;;;;19.05;100.00;96915.38;5055603;28;20025;-82
2023/06/17 06:38:01;;;;;;;5.68;3.80;;;;;;;18.94;100.00;96908.41;5073534;28;20466;-83
2023/06/17 06:40:27;;;;;;;5.90;3.60;;;;;;;18.87;100.00;96910.03;5055742;28;20029;-83
2023/06/17 06:42:53;;;;;;;7.90;4.90;;;;;;;18.92;100.00;96904.97;5055830;28;20040;-84
2023/06/17 06:45:18;;;;;;;6.40;3.17;;;;;;;19.00;100.00;96912.31;5055799;28;20031;-83
2023/06/17 06:47:43;;;;;;;4.80;2.75;;;;;;;18.98;100.00;96914.31;5043265;28;20136;-85
2023/06/17 06:50:09;;;;;;;10.60;6.95;;;;;;;19.14;100.00;96906.25;5070383;28;20029;-83
2023/06/17 06:52:35;;;;;;;4.57;2.90;;;;;;;19.29;100.00;96899.19;5055368;28;20381;-83
2023/06/17 06:55:01;;;;;;;1.70;1.60;;;;;;;19.36;100.00;96894.81;5055650;28;20032;-85
2023/06/17 06:57:26;;;;;;;8.73;6.65;;;;;;;19.48;100.00;96896.22;5055813;28;20124;-83
2023/06/17 06:59:52;;;;;;;1.65;1.40;;;;;;;19.41;100.00;96880.81;5038420;28;20028;-83
2023/06/17 07:02:17;;;;;;;2.45;1.63;;;;;;;19.46;100.00;96875.72;5055108;28;20025;-82
2023/06/17 07:04:43;;;;;;;2.25;1.30;;;;;;;19.37;100.00;96874.81;5055290;28;20024;-83
2023/06/17 07:07:09;;;;;;;1.90;1.50;;;;;;;19.51;100.00;96873.34;5055241;28;20024;-84
2023/06/17 07:09:34;;;;;;;1.70;1.45;;;;;;;19.55;100.00;96872.00;5054905;28;20028;-81
2023/06/17 07:12:00;;;;;;;2.95;1.50;;;;;;;19.66;100.00;96879.81;5072814;28;20028;-80
2023/06/17 07:14:25;;;;;;;3.22;2.17;;;;;;;19.95;100.00;96872.03;5054408;28;20416;-79
2023/06/17 07:16:51;;;;;;;3.45;2.10;;;;;;;20.19;100.00;96870.31;5072702;28;20028;-79
2023/06/17 07:19:16;;;;;;;2.47;1.90;;;;;;;20.31;100.00;96868.97;5054863;28;20059;-78
2023/06/17 07:21:42;;;;;;;2.30;1.27;;;;;;;20.48;100.00;96873.38;5054515;28;20399;-79
2023/06/17 07:24:07;;;;;;;3.92;2.28;;;;;;;20.67;100.00;96859.41;5054745;28;20027;-80
2023/06/17 07:26:33;;;;;;;2.20;1.60;;;;;;;21.01;100.00;96846.34;5037675;28;20557;-79
2023/06/17 07:29:01;;;;;;;4.28;1.50;;;;;;;21.24;100.00;96851.88;5070953;28;20377;-80
2023/06/17 07:31:28;;;;;;;1.60;1.20;;;;;;;21.54;100.00;96842.00;5038214;28;20033;-79
2023/06/17 07:33:54;;;;;;;1.88;1.50;;;;;;;21.45;100.00;96837.66;5051742;28;20083;-79
2023/06/17 07:36:20;;;;;;;5.25;1.33;;;;;;;21.32;100.00;96845.56;5033642;28;20029;-79
2023/06/17 07:38:45;;;;;;;3.25;1.80;;;;;;;21.33;100.00;96845.38;5053925;28;20036;-79
2023/06/17 07:41:11;;;;;;;2.80;1.65;;;;;;;21.30;100.00;96850.31;5054171;28;20036;-79
2023/06/17 07:43:36;;;;;;;1.13;1.00;;;;;;;21.10;100.00;96849.09;5057757;28;20029;-80
2023/06/17 07:46:02;;;;;;;2.25;1.15;;;;;;;21.02;100.00;96861.66;5071730;28;20062;-80
2023/06/17 07:48:27;;;;;;;1.95;1.00;;;;;;;20.84;100.00;96863.78;5048248;28;20056;-79
2023/06/17 07:50:53;;;;;;;1.67;1.10;;;;;;;20.77;100.00;96865.47;5037222;28;20028;-81
2023/06/17 07:53:18;;;;;;;2.58;1.50;;;;;;;20.73;100.00;96869.59;5053856;28;20462;-80
2023/06/17 07:55:44;;;;;;;4.10;1.08;;;;;;;20.62;100.00;96872.66;5053529;28;20040;-80
2023/06/17 07:58:10;;;;;;;1.08;1.00;;;;;;;20.42;100.00;96864.06;5053561;28;20021;-79
2023/06/17 08:00:35;;;;;;;1.85;1.08;;;;;;;20.33;100.00;96875.94;5053471;28;20471;-81
2023/06/17 08:03:01;;;;;;;1.30;1.20;;;;;;;20.22;100.00;96891.72;5053516;28;20360;-80
2023/06/17 08:05:26;;;;;;;1.35;1.15;;;;;;;20.12;100.00;96885.63;5071488;28;20028;-80
2023/06/17 08:07:52;;;;;;;3.35;1.10;;;;;;;20.17;100.00;96896.81;5053199;28;20028;-79
2023/06/17 08:10:17;;;;;;;1.33;1.10;;;;;;;20.20;100.00;96893.75;5071141;28;20064;-79
2023/06/17 08:12:44;;;;;;;1.92;1.02;;;;;;;20.15;100.00;96898.88;5045966;28;20032;-79
2023/06/17 08:15:09;;;;;;;1.55;1.20;;;;;;;20.19;100.00;96911.06;5053614;28;20029;-80
2023/06/17 08:17:35;;;;;;;2.00;1.30;;;;;;;20.15;100.00;96915.16;5071067;28;20020;-80
2023/06/17 08:20:00;;;;;;;3.05;1.48;;;;;;;20.35;100.00;96905.66;5071175;28;20032;-80
2023/06/17 08:22:26;;;;;;;2.20;1.48;;;;;;;20.31;100.00;96909.72;5053576;28;20028;-81
2023/06/17 08:24:51;;;;;;;5.28;4.03;;;;;;;20.32;100.00;96914.16;5053122;28;20060;-81
2023/06/17 08:27:17;;;;;;;3.53;1.35;;;;;;;20.34;100.00;96921.09;5052944;28;20033;-80
2023/06/17 08:29:43;;;;;;;7.03;3.83;;;;;;;20.30;100.00;96905.34;5070957;28;20540;-80
2023/06/17 08:32:08;;;;;;;3.35;2.10;;;;;;;20.41;100.00;96913.13;5036542;28;20373;-81
2023/06/17 08:34:35;;;;;;;2.83;1.52;;;;;;;20.29;100.00;96911.78;5053042;28;20044;-81
2023/06/17 08:37:04;;;;;;;2.17;1.65;;;;;;;20.34;100.00;96917.53;5036336;28;20040;-82
2023/06/17 08:39:36;;;;;;;2.58;1.40;;;;;;;20.26;100.00;96914.84;5045916;28;20029;-82
2023/06/17 08:42:01;;;;;;;3.45;1.50;;;;;;;20.17;100.00;96916.69;5053150;28;20522;-82
2023/06/17 08:44:32;;;;;;;5.90;2.42;;;;;;;20.13;100.00;96918.03;5052409;28;20032;-82
2023/06/17 08:47:00;;;;;;;3.35;1.67;;;;;;;20.10;100.00;96925.66;5068873;28;20049;-83
2023/06/17 08:49:27;;;;;;;5.05;1.80;;;;;;;19.94;100.00;96926.50;5031550;28;20470;-82
2023/06/17 08:51:52;;;;;;;15.52;9.27;;;;;;;19.92;100.00;96926.69;5035604;28;20032;-81
2023/06/17 08:54:20;;;;;;;65.68;39.85;;;;;;;19.91;100.00;96924.97;5036081;28;20028;-82
2023/06/17 08:56:46;;;;;;;35.45;21.20;;;;;;;19.85;100.00;96922.06;5051222;28;20476;-81
2023/06/17 08:59:11;;;;;;;7.78;4.32;;;;;;;19.77;100.00;96935.66;5052731;28;20021;-81
2023/06/17 09:01:38;;;;;;;47.30;28.80;;;;;;;19.72;100.00;96933.41;5052686;28;20028;-80
2023/06/17 09:04:04;;;;;;;9.10;3.53;;;;;;;19.65;100.00;96937.84;5035690;28;20492;-80
2023/06/17 09:06:30;;;;;;;6.28;2.53;;;;;;;19.59;100.00;96938.50;5052489;28;20029;-79
2023/06/17 09:08:59;;;;;;;5.57;4.28;;;;;;;19.71;100.00;96947.16;5035796;28;20039;-79
2023/06/17 09:11:30;;;;;;;3.60;2.42;;;;;;;19.66;100.00;96947.66;5053345;28;20025;-80
2023/06/17 09:13:58;;;;;;;4.13;2.55;;;;;;;19.60;100.00;96944.75;5052547;28;20032;-79
2023/06/17 09:16:28;;;;;;;4.07;2.38;;;;;;;19.53;100.00;96941.88;5052687;28;20083;-79
2023/06/17 09:18:58;;;;;;;4.15;3.05;;;;;;;19.60;100.00;96945.59;5070118;28;20024;-78
2023/06/17 09:21:25;;;;;;;8.52;3.47;;;;;;;19.52;100.00;96940.16;5052610;28;20035;-79
2023/06/17 09:23:53;;;;;;;5.97;3.75;;;;;;;19.55;100.00;96938.97;5052376;28;20091;-79
2023/06/17 09:26:19;;;;;;;7.28;3.85;;;;;;;19.64;100.00;96938.84;5063289;28;20036;-79
2023/06/17 09:28:45;;;;;;;5.75;3.80;;;;;;;19.70;100.00;96943.59;5032657;28;20481;-79
2023/06/17 09:31:12;;;;;;;8.50;3.95;;;;;;;19.82;100.00;96944.97;5051082;28;20069;-79
2023/06/17 09:33:38;;;;;;;5.70;3.65;;;;;;;20.00;100.00;96928.53;5052612;28;20104;-80
2023/06/17 09:36:04;;;;;;;4.15;2.80;;;;;;;20.09;100.00;96932.94;5034059;28;20032;-79
2023/06/17 09:38:31;;;;;;;3.78;2.08;;;;;;;20.19;100.00;96938.22;5035980;28;20172;-80
2023/06/17 09:40:58;;;;;;;4.03;2.40;;;;;;;20.17;100.00;96932.13;5052053;28;20024;-79
2023/06/17 09:43:27;;;;;;;39.42;24.08;;;;;;;20.18;100.00;96936.53;5035727;28;20040;-80
2023/06/17 09:46:02;;;;;;;4.57;3.28;;;;;;;20.22;100.00;96936.03;5052693;28;20093;-80
2023/06/17 09:48:37;;;;;;;20.83;15.55;;;;;;;20.27;100.00;96936.38;5052661;28;20049;-81
2023/06/17 09:51:05;;;;;;;3.45;2.53;;;;;;;20.39;100.00;96931.47;5050945;28;20024;-80
2023/06/17 09:53:30;;;;;;;2.88;2.10;;;;;;;20.42;100.00;96933.84;5070191;28;20017;-79
2023/06/17 09:55:57;;;;;;;5.50;2.90;;;;;;;20.42;100.00;96921.13;5052760;28;20028;-80
2023/06/17 09:58:29;;;;;;;2.20;1.98;;;;;;;20.15;100.00;96917.88;5055538;28;20491;-80
2023/06/17 10:00:57;;;;;;;2.43;1.90;;;;;;;20.14;100.00;96933.31;5038557;28;20040;-80
2023/06/17 10:03:22;;;;;;;3.10;2.55;;;;;;;20.24;100.00;96939.41;5055319;28;20067;-80
2023/06/17 10:06:03;;;;;;;6.93;3.15;;;;;;;20.02;100.00;96934.66;5055372;28;20032;-80
2023/06/17 10:08:30;;;;;;;5.30;2.60;;;;;;;19.97;100.00;96937.03;5050072;28;20028;-79
2023/06/17 10:10:58;;;;;;;4.35;2.55;;;;;;;19.86;100.00;96946.34;5054786;28;20028;-77
2023/06/17 10:13:25;;;;;;;4.30;2.72;;;;;;;19.95;100.00;96948.06;5054950;28;20090;-78
2023/06/17 10:15:53;;;;;;;9.02;5.18;;;;;;;20.00;100.00;96942.97;5037908;28;20135;-78
2023/06/17 10:18:19;;;;;;;8.50;5.88;;;;;;;20.10;100.00;96947.38;5054839;28;20100;-78
2023/06/17 10:20:46;;;;;;;8.30;2.67;;;;;;;20.11;100.00;96947.22;5054792;28;20032;-78
2023/06/17 10:23:12;;;;;;;4.10;2.47;;;;;;;19.97;100.00;96947.88;5035960;28;20020;-78
2023/06/17 10:25:39;;;;;;;3.97;2.40;;;;;;;19.76;100.00;96942.06;5068078;28;20103;-78
2023/06/17 10:28:05;;;;;;;9.20;3.08;;;;;;;19.65;100.00;96945.13;5054599;28;20028;-78
2023/06/17 10:30:32;;;;;;;4.20;2.92;;;;;;;19.64;100.00;96959.69;5048144;28;20036;-78
2023/06/17 10:32:59;;;;;;;6.78;3.42;;;;;;;19.58;100.00;96958.50;5054580;28;20031;-78
2023/06/17 10:35:39;;;;;;;4.97;3.05;;;;;;;19.58;100.00;96963.91;5037669;28;20048;-78
2023/06/17 10:38:04;;;;;;;3.15;2.47;;;;;;;19.50;100.00;96963.91;5054540;28;20472;-78
2023/06/17 10:40:35;;;;;;;3.67;2.53;;;;;;;19.43;100.00;96965.56;5037996;28;20032;-78
2023/06/17 10:43:04;;;;;;;6.15;2.15;;;;;;;19.31;100.00;96970.41;5055402;28;20051;-78
2023/06/17 10:45:31;;;;;;;3.47;2.60;;;;;;;19.34;100.00;96978.22;5054347;28;20452;-78
2023/06/17 10:48:12;;;;;;;7.25;2.90;;;;;;;19.31;100.00;96977.69;5054118;28;20036;-79
2023/06/17 10:50:38;;;;;;;2.83;2.53;;;;;;;19.24;100.00;96987.47;5052894;28;20051;-78
2023/06/17 10:53:05;;;;;;;7.03;2.53;;;;;;;19.26;100.00;96985.44;5037547;28;20036;-77
2023/06/17 10:55:31;;;;;;;3.53;2.30;;;;;;;19.20;100.00;96989.66;5054415;28;20032;-78
2023/06/17 10:57:57;;;;;;;4.00;2.53;;;;;;;19.12;100.00;96986.94;5037658;28;20025;-81
2023/06/17 11:00:23;;;;;;;5.93;2.42;;;;;;;19.04;100.00;96992.28;5053938;28;20470;-77
2023/06/17 11:02:49;;;;;;;3.42;2.55;;;;;;;19.02;100.00;97001.59;5053663;28;20028;-79
2023/06/17 11:05:16;;;;;;;5.07;2.70;;;;;;;19.01;100.00;97000.75;5037174;28;20031;-77
2023/06/17 11:07:42;;;;;;;4.63;2.58;;;;;;;18.98;100.00;96997.53;5053659;28;20028;-77
2023/06/17 11:10:07;;;;;;;4.00;2.30;;;;;;;19.02;100.00;97007.00;5053876;28;20046;-77
2023/06/17 11:12:37;;;;;;;5.03;2.88;;;;;;;19.00;100.00;97006.34;5029019;28;20498;-77
2023/06/17 11:15:03;;;;;;;7.78;2.90;;;;;;;19.08;100.00;97003.66;5070928;28;20078;-76
2023/06/17 11:17:29;;;;;;;3.83;3.00;;;;;;;19.14;100.00;97006.59;5050449;28;20092;-76
2023/06/17 11:19:55;;;;;;;2.55;2.15;;;;;;;19.20;100.00;97003.22;5049846;28;20024;-76
2023/06/17 11:22:22;;;;;;;3.22;2.75;;;;;;;19.13;100.00;97001.34;5046884;28;20040;-76
2023/06/17 11:24:48;;;;;;;3.95;2.40;;;;;;;19.02;100.00;97001.59;5053498;28;20088;-76